sensor_id;sensor_type;location;lat;lon;timestamp;temperature;humidity
18694;DHT22;9477;51.414;10.362;2023-04-15T00:00:38;9.70;82.40
18694;DHT22;9477;51.414;10.362;2023-04-15T00:02:41;9.60;82.60
18694;DHT22;9477;51.414;10.362;2023-04-15T00:04:45;9.50;82.90
18694;DHT22;9477;51.414;10.362;2023-04-15T00:06:51;9.50;83.10
18694;DHT22;9477;51.414;10.362;2023-04-15T00:08:56;9.20;83.60
18694;DHT22;9477;51.414;10.362;2023-04-15T00:11:00;9.00;84.40
18694;DHT22;9477;51.414;10.362;2023-04-15T00:13:06;8.70;85.30
18694;DHT22;9477;51.414;10.362;2023-04-15T00:15:10;8.60;85.80
18694;DHT22;9477;51.414;10.362;2023-04-15T00:17:13;8.40;86.70
18694;DHT22;9477;51.414;10.362;2023-04-15T00:19:16;8.30;87.70
18694;DHT22;9477;51.414;10.362;2023-04-15T00:21:19;8.40;88.20
18694;DHT22;9477;51.414;10.362;2023-04-15T00:23:22;8.50;88.20
18694;DHT22;9477;51.414;10.362;2023-04-15T00:25:27;8.60;88.00
18694;DHT22;9477;51.414;10.362;2023-04-15T00:27:29;8.70;87.80
18694;DHT22;9477;51.414;10.362;2023-04-15T00:29:33;8.90;87.30
18694;DHT22;9477;51.414;10.362;2023-04-15T00:31:36;8.90;87.10
18694;DHT22;9477;51.414;10.362;2023-04-15T00:33:39;8.80;87.50
18694;DHT22;9477;51.414;10.362;2023-04-15T00:35:41;8.70;88.00
18694;DHT22;9477;51.414;10.362;2023-04-15T00:37:45;8.40;89.30
18694;DHT22;9477;51.414;10.362;2023-04-15T00:39:48;8.30;89.60
18694;DHT22;9477;51.414;10.362;2023-04-15T00:41:52;8.40;90.00
18694;DHT22;9477;51.414;10.362;2023-04-15T00:43:55;8.50;90.00
18694;DHT22;9477;51.414;10.362;2023-04-15T00:45:59;8.30;90.20
18694;DHT22;9477;51.414;10.362;2023-04-15T00:48:04;8.20;90.40
18694;DHT22;9477;51.414;10.362;2023-04-15T00:50:08;8.10;90.50
18694;DHT22;9477;51.414;10.362;2023-04-15T00:52:12;8.00;90.90
18694;DHT22;9477;51.414;10.362;2023-04-15T00:54:15;8.10;91.10
18694;DHT22;9477;51.414;10.362;2023-04-15T00:56:19;8.50;91.00
18694;DHT22;9477;51.414;10.362;2023-04-15T00:58:26;8.60;90.70
18694;DHT22;9477;51.414;10.362;2023-04-15T01:00:29;8.60;90.40
18694;DHT22;9477;51.414;10.362;2023-04-15T01:02:33;8.60;90.40
18694;DHT22;9477;51.414;10.362;2023-04-15T01:04:37;8.70;90.50
18694;DHT22;9477;51.414;10.362;2023-04-15T01:06:40;8.80;90.30
18694;DHT22;9477;51.414;10.362;2023-04-15T01:08:43;8.80;90.30
18694;DHT22;9477;51.414;10.362;2023-04-15T01:10:46;9.00;90.10
18694;DHT22;9477;51.414;10.362;2023-04-15T01:12:49;9.10;90.00
18694;DHT22;9477;51.414;10.362;2023-04-15T01:14:54;8.80;89.80
18694;DHT22;9477;51.414;10.362;2023-04-15T01:16:57;9.00;90.10
18694;DHT22;9477;51.414;10.362;2023-04-15T01:19:01;9.10;90.00
18694;DHT22;9477;51.414;10.362;2023-04-15T01:21:05;9.10;89.80
18694;DHT22;9477;51.414;10.362;2023-04-15T01:23:10;9.10;90.00
18694;DHT22;9477;51.414;10.362;2023-04-15T01:25:17;9.20;90.00
18694;DHT22;9477;51.414;10.362;2023-04-15T01:27:22;8.90;90.10
18694;DHT22;9477;51.414;10.362;2023-04-15T01:29:26;9.10;90.20
18694;DHT22;9477;51.414;10.362;2023-04-15T01:31:29;9.20;90.40
18694;DHT22;9477;51.414;10.362;2023-04-15T01:33:32;9.30;90.00
18694;DHT22;9477;51.414;10.362;2023-04-15T01:35:35;9.40;89.80
18694;DHT22;9477;51.414;10.362;2023-04-15T01:37:39;9.50;89.70
18694;DHT22;9477;51.414;10.362;2023-04-15T01:39:42;9.40;89.50
18694;DHT22;9477;51.414;10.362;2023-04-15T01:41:46;9.30;89.50
18694;DHT22;9477;51.414;10.362;2023-04-15T01:43:51;9.30;90.00
18694;DHT22;9477;51.414;10.362;2023-04-15T01:45:54;9.10;90.20
18694;DHT22;9477;51.414;10.362;2023-04-15T01:47:57;9.00;90.40
18694;DHT22;9477;51.414;10.362;2023-04-15T01:50:00;9.40;90.60
18694;DHT22;9477;51.414;10.362;2023-04-15T01:52:03;9.60;90.70
18694;DHT22;9477;51.414;10.362;2023-04-15T01:54:06;9.80;90.20
18694;DHT22;9477;51.414;10.362;2023-04-15T01:56:09;9.70;89.60
18694;DHT22;9477;51.414;10.362;2023-04-15T01:58:12;9.80;89.80
18694;DHT22;9477;51.414;10.362;2023-04-15T02:00:17;9.80;89.50
18694;DHT22;9477;51.414;10.362;2023-04-15T02:02:19;9.50;90.00
18694;DHT22;9477;51.414;10.362;2023-04-15T02:04:22;9.20;90.10
18694;DHT22;9477;51.414;10.362;2023-04-15T02:06:25;9.30;90.40
18694;DHT22;9477;51.414;10.362;2023-04-15T02:08:29;9.20;90.60
18694;DHT22;9477;51.414;10.362;2023-04-15T02:10:32;9.00;90.60
18694;DHT22;9477;51.414;10.362;2023-04-15T02:12:35;9.40;90.60
18694;DHT22;9477;51.414;10.362;2023-04-15T02:14:38;9.40;90.60
18694;DHT22;9477;51.414;10.362;2023-04-15T02:16:44;9.40;90.80
18694;DHT22;9477;51.414;10.362;2023-04-15T02:18:47;9.50;90.80
18694;DHT22;9477;51.414;10.362;2023-04-15T02:20:50;9.40;90.70
18694;DHT22;9477;51.414;10.362;2023-04-15T02:22:53;9.60;90.50
18694;DHT22;9477;51.414;10.362;2023-04-15T02:24:57;9.50;90.40
18694;DHT22;9477;51.414;10.362;2023-04-15T02:27:00;9.30;90.60
18694;DHT22;9477;51.414;10.362;2023-04-15T02:29:05;9.20;90.80
18694;DHT22;9477;51.414;10.362;2023-04-15T02:31:08;9.30;90.80
18694;DHT22;9477;51.414;10.362;2023-04-15T02:33:12;9.40;90.90
18694;DHT22;9477;51.414;10.362;2023-04-15T02:35:15;9.40;90.80
18694;DHT22;9477;51.414;10.362;2023-04-15T02:37:19;9.30;90.90
18694;DHT22;9477;51.414;10.362;2023-04-15T02:39:22;9.40;90.90
18694;DHT22;9477;51.414;10.362;2023-04-15T02:41:25;8.80;91.00
18694;DHT22;9477;51.414;10.362;2023-04-15T02:43:29;8.80;91.40
18694;DHT22;9477;51.414;10.362;2023-04-15T02:45:32;8.50;92.00
18694;DHT22;9477;51.414;10.362;2023-04-15T02:47:35;8.40;92.30
18694;DHT22;9477;51.414;10.362;2023-04-15T02:49:41;8.50;92.40
18694;DHT22;9477;51.414;10.362;2023-04-15T02:51:44;8.50;92.80
18694;DHT22;9477;51.414;10.362;2023-04-15T02:53:49;8.70;92.50
18694;DHT22;9477;51.414;10.362;2023-04-15T02:55:52;8.70;92.40
18694;DHT22;9477;51.414;10.362;2023-04-15T02:57:56;8.80;92.40
18694;DHT22;9477;51.414;10.362;2023-04-15T03:00:00;9.00;92.50
18694;DHT22;9477;51.414;10.362;2023-04-15T03:02:05;8.90;92.10
18694;DHT22;9477;51.414;10.362;2023-04-15T03:04:09;9.00;92.20
18694;DHT22;9477;51.414;10.362;2023-04-15T03:06:13;8.70;92.10
18694;DHT22;9477;51.414;10.362;2023-04-15T03:08:17;8.70;92.60
18694;DHT22;9477;51.414;10.362;2023-04-15T03:10:20;8.80;92.70
18694;DHT22;9477;51.414;10.362;2023-04-15T03:12:23;8.50;92.70
18694;DHT22;9477;51.414;10.362;2023-04-15T03:14:26;8.60;92.80
18694;DHT22;9477;51.414;10.362;2023-04-15T03:16:29;8.80;92.90
18694;DHT22;9477;51.414;10.362;2023-04-15T03:18:32;8.90;92.80
18694;DHT22;9477;51.414;10.362;2023-04-15T03:20:34;8.40;92.60
18694;DHT22;9477;51.414;10.362;2023-04-15T03:22:39;8.70;93.00
18694;DHT22;9477;51.414;10.362;2023-04-15T03:24:43;8.80;93.00
18694;DHT22;9477;51.414;10.362;2023-04-15T03:26:46;8.00;92.80
18694;DHT22;9477;51.414;10.362;2023-04-15T03:28:49;8.50;93.20
18694;DHT22;9477;51.414;10.362;2023-04-15T03:30:52;8.70;93.30
18694;DHT22;9477;51.414;10.362;2023-04-15T03:32:55;8.60;93.30
18694;DHT22;9477;51.414;10.362;2023-04-15T03:34:58;8.70;93.30
18694;DHT22;9477;51.414;10.362;2023-04-15T03:37:00;8.60;93.30
18694;DHT22;9477;51.414;10.362;2023-04-15T03:39:05;8.60;93.40
18694;DHT22;9477;51.414;10.362;2023-04-15T03:41:08;8.40;93.40
18694;DHT22;9477;51.414;10.362;2023-04-15T03:43:11;8.50;93.60
18694;DHT22;9477;51.414;10.362;2023-04-15T03:45:14;8.40;93.60
18694;DHT22;9477;51.414;10.362;2023-04-15T03:47:17;8.70;93.60
18694;DHT22;9477;51.414;10.362;2023-04-15T03:49:20;9.10;93.40
18694;DHT22;9477;51.414;10.362;2023-04-15T03:51:23;9.20;93.20
18694;DHT22;9477;51.414;10.362;2023-04-15T03:53:27;9.10;92.80
18694;DHT22;9477;51.414;10.362;2023-04-15T03:55:31;9.10;92.60
18694;DHT22;9477;51.414;10.362;2023-04-15T03:57:34;9.00;92.80
18694;DHT22;9477;51.414;10.362;2023-04-15T03:59:39;8.90;92.90
18694;DHT22;9477;51.414;10.362;2023-04-15T04:01:42;9.00;92.90
18694;DHT22;9477;51.414;10.362;2023-04-15T04:03:45;8.80;93.00
18694;DHT22;9477;51.414;10.362;2023-04-15T04:05:49;8.90;93.20
18694;DHT22;9477;51.414;10.362;2023-04-15T04:07:54;8.90;93.20
18694;DHT22;9477;51.414;10.362;2023-04-15T04:09:57;8.70;93.30
18694;DHT22;9477;51.414;10.362;2023-04-15T04:12:01;8.90;93.20
18694;DHT22;9477;51.414;10.362;2023-04-15T04:14:04;8.90;93.20
18694;DHT22;9477;51.414;10.362;2023-04-15T04:16:07;8.90;93.10
18694;DHT22;9477;51.414;10.362;2023-04-15T04:18:10;8.70;93.20
18694;DHT22;9477;51.414;10.362;2023-04-15T04:20:14;8.70;93.60
18694;DHT22;9477;51.414;10.362;2023-04-15T04:22:18;8.70;93.80
18694;DHT22;9477;51.414;10.362;2023-04-15T04:24:23;8.70;93.70
18694;DHT22;9477;51.414;10.362;2023-04-15T04:26:27;8.80;93.90
18694;DHT22;9477;51.414;10.362;2023-04-15T04:28:31;9.10;93.70
18694;DHT22;9477;51.414;10.362;2023-04-15T04:30:34;9.00;93.50
18694;DHT22;9477;51.414;10.362;2023-04-15T04:32:37;9.20;93.40
18694;DHT22;9477;51.414;10.362;2023-04-15T04:34:40;9.10;93.40
18694;DHT22;9477;51.414;10.362;2023-04-15T04:36:43;9.30;93.30
18694;DHT22;9477;51.414;10.362;2023-04-15T04:38:46;9.10;93.40
18694;DHT22;9477;51.414;10.362;2023-04-15T04:40:49;9.00;93.50
18694;DHT22;9477;51.414;10.362;2023-04-15T04:42:52;8.90;93.60
18694;DHT22;9477;51.414;10.362;2023-04-15T04:44:56;8.90;93.60
18694;DHT22;9477;51.414;10.362;2023-04-15T04:46:59;8.80;93.70
18694;DHT22;9477;51.414;10.362;2023-04-15T04:49:02;9.00;93.80
18694;DHT22;9477;51.414;10.362;2023-04-15T04:51:05;8.80;93.90
18694;DHT22;9477;51.414;10.362;2023-04-15T04:53:08;9.10;94.20
18694;DHT22;9477;51.414;10.362;2023-04-15T04:55:11;9.20;94.00
18694;DHT22;9477;51.414;10.362;2023-04-15T04:57:14;9.30;93.60
18694;DHT22;9477;51.414;10.362;2023-04-15T04:59:17;9.40;93.70
18694;DHT22;9477;51.414;10.362;2023-04-15T05:01:23;9.10;93.70
18694;DHT22;9477;51.414;10.362;2023-04-15T05:03:27;9.40;93.80
18694;DHT22;9477;51.414;10.362;2023-04-15T05:05:30;9.10;93.80
18694;DHT22;9477;51.414;10.362;2023-04-15T05:07:33;9.10;94.20
18694;DHT22;9477;51.414;10.362;2023-04-15T05:09:36;9.20;94.10
18694;DHT22;9477;51.414;10.362;2023-04-15T05:11:39;9.20;94.10
18694;DHT22;9477;51.414;10.362;2023-04-15T05:13:42;9.20;94.10
18694;DHT22;9477;51.414;10.362;2023-04-15T05:15:45;9.30;94.10
18694;DHT22;9477;51.414;10.362;2023-04-15T05:17:49;9.10;93.90
18694;DHT22;9477;51.414;10.362;2023-04-15T05:19:53;9.30;94.10
18694;DHT22;9477;51.414;10.362;2023-04-15T05:21:55;9.40;94.00
18694;DHT22;9477;51.414;10.362;2023-04-15T05:23:58;9.30;93.70
18694;DHT22;9477;51.414;10.362;2023-04-15T05:26:03;9.30;93.90
18694;DHT22;9477;51.414;10.362;2023-04-15T05:28:05;8.90;94.00
18694;DHT22;9477;51.414;10.362;2023-04-15T05:30:09;8.90;94.30
18694;DHT22;9477;51.414;10.362;2023-04-15T05:32:14;8.60;94.40
18694;DHT22;9477;51.414;10.362;2023-04-15T05:34:19;8.80;94.50
18694;DHT22;9477;51.414;10.362;2023-04-15T05:36:22;8.90;94.70
18694;DHT22;9477;51.414;10.362;2023-04-15T05:38:26;8.90;94.70
18694;DHT22;9477;51.414;10.362;2023-04-15T05:40:29;8.90;94.60
18694;DHT22;9477;51.414;10.362;2023-04-15T05:42:32;8.60;94.70
18694;DHT22;9477;51.414;10.362;2023-04-15T05:44:36;8.80;95.00
18694;DHT22;9477;51.414;10.362;2023-04-15T05:46:39;8.80;95.10
18694;DHT22;9477;51.414;10.362;2023-04-15T05:48:42;8.80;95.10
18694;DHT22;9477;51.414;10.362;2023-04-15T05:50:46;8.90;95.00
18694;DHT22;9477;51.414;10.362;2023-04-15T05:52:51;8.70;95.00
18694;DHT22;9477;51.414;10.362;2023-04-15T05:54:54;8.90;95.00
18694;DHT22;9477;51.414;10.362;2023-04-15T05:56:57;8.90;95.00
18694;DHT22;9477;51.414;10.362;2023-04-15T05:59:00;8.60;95.30
18694;DHT22;9477;51.414;10.362;2023-04-15T06:01:04;8.70;95.40
18694;DHT22;9477;51.414;10.362;2023-04-15T06:03:08;8.90;95.50
18694;DHT22;9477;51.414;10.362;2023-04-15T06:05:12;8.80;95.30
18694;DHT22;9477;51.414;10.362;2023-04-15T06:07:16;8.90;95.30
18694;DHT22;9477;51.414;10.362;2023-04-15T06:09:19;8.90;95.20
18694;DHT22;9477;51.414;10.362;2023-04-15T06:11:22;9.00;95.30
18694;DHT22;9477;51.414;10.362;2023-04-15T06:13:25;8.60;95.20
18694;DHT22;9477;51.414;10.362;2023-04-15T06:15:29;9.00;95.40
18694;DHT22;9477;51.414;10.362;2023-04-15T06:17:31;8.80;95.20
18694;DHT22;9477;51.414;10.362;2023-04-15T06:19:34;8.60;95.60
18694;DHT22;9477;51.414;10.362;2023-04-15T06:21:38;8.50;96.00
18694;DHT22;9477;51.414;10.362;2023-04-15T06:23:42;8.70;95.90
18694;DHT22;9477;51.414;10.362;2023-04-15T06:25:45;8.40;95.90
18694;DHT22;9477;51.414;10.362;2023-04-15T06:27:48;8.70;96.10
18694;DHT22;9477;51.414;10.362;2023-04-15T06:29:53;7.90;95.80
18694;DHT22;9477;51.414;10.362;2023-04-15T06:31:56;8.50;96.30
18694;DHT22;9477;51.414;10.362;2023-04-15T06:33:59;8.80;96.40
18694;DHT22;9477;51.414;10.362;2023-04-15T06:36:02;8.20;96.10
18694;DHT22;9477;51.414;10.362;2023-04-15T06:38:05;8.60;96.50
18694;DHT22;9477;51.414;10.362;2023-04-15T06:40:10;8.50;96.80
18694;DHT22;9477;51.414;10.362;2023-04-15T06:42:13;8.40;96.80
18694;DHT22;9477;51.414;10.362;2023-04-15T06:44:19;8.70;97.00
18694;DHT22;9477;51.414;10.362;2023-04-15T06:46:22;8.70;96.60
18694;DHT22;9477;51.414;10.362;2023-04-15T06:48:25;8.60;96.50
18694;DHT22;9477;51.414;10.362;2023-04-15T06:50:30;8.80;96.60
18694;DHT22;9477;51.414;10.362;2023-04-15T06:52:33;8.70;96.50
18694;DHT22;9477;51.414;10.362;2023-04-15T06:54:36;8.70;96.80
18694;DHT22;9477;51.414;10.362;2023-04-15T06:56:40;8.60;96.60
18694;DHT22;9477;51.414;10.362;2023-04-15T06:58:43;8.70;96.60
18694;DHT22;9477;51.414;10.362;2023-04-15T07:00:48;8.90;96.60
18694;DHT22;9477;51.414;10.362;2023-04-15T07:02:52;9.10;96.80
18694;DHT22;9477;51.414;10.362;2023-04-15T07:04:55;9.40;96.40
18694;DHT22;9477;51.414;10.362;2023-04-15T07:06:59;9.50;96.40
18694;DHT22;9477;51.414;10.362;2023-04-15T07:09:03;9.30;95.80
18694;DHT22;9477;51.414;10.362;2023-04-15T07:11:06;9.40;95.80
18694;DHT22;9477;51.414;10.362;2023-04-15T07:13:11;9.40;95.80
18694;DHT22;9477;51.414;10.362;2023-04-15T07:15:15;9.30;95.80
18694;DHT22;9477;51.414;10.362;2023-04-15T07:17:18;9.00;95.90
18694;DHT22;9477;51.414;10.362;2023-04-15T07:19:21;9.00;96.30
18694;DHT22;9477;51.414;10.362;2023-04-15T07:21:24;8.70;96.40
18694;DHT22;9477;51.414;10.362;2023-04-15T07:23:28;9.10;96.40
18694;DHT22;9477;51.414;10.362;2023-04-15T07:25:32;9.20;96.40
18694;DHT22;9477;51.414;10.362;2023-04-15T07:27:35;9.20;96.30
18694;DHT22;9477;51.414;10.362;2023-04-15T07:29:39;9.10;96.20
18694;DHT22;9477;51.414;10.362;2023-04-15T07:31:43;9.00;96.10
18694;DHT22;9477;51.414;10.362;2023-04-15T07:33:46;9.10;96.40
18694;DHT22;9477;51.414;10.362;2023-04-15T07:35:50;8.90;96.40
18694;DHT22;9477;51.414;10.362;2023-04-15T07:37:53;9.00;96.70
18694;DHT22;9477;51.414;10.362;2023-04-15T07:39:57;8.80;96.70
18694;DHT22;9477;51.414;10.362;2023-04-15T07:42:00;9.00;96.80
18694;DHT22;9477;51.414;10.362;2023-04-15T07:44:03;9.10;96.80
18694;DHT22;9477;51.414;10.362;2023-04-15T07:46:07;9.30;96.80
18694;DHT22;9477;51.414;10.362;2023-04-15T07:48:12;9.20;96.60
18694;DHT22;9477;51.414;10.362;2023-04-15T07:50:15;9.40;96.50
18694;DHT22;9477;51.414;10.362;2023-04-15T07:52:17;9.40;96.80
18694;DHT22;9477;51.414;10.362;2023-04-15T07:54:20;9.40;96.40
18694;DHT22;9477;51.414;10.362;2023-04-15T07:56:23;9.30;96.10
18694;DHT22;9477;51.414;10.362;2023-04-15T07:58:27;9.10;96.10
18694;DHT22;9477;51.414;10.362;2023-04-15T08:00:30;9.20;96.40
18694;DHT22;9477;51.414;10.362;2023-04-15T08:02:35;9.30;96.40
18694;DHT22;9477;51.414;10.362;2023-04-15T08:04:40;9.30;96.40
18694;DHT22;9477;51.414;10.362;2023-04-15T08:06:44;9.00;96.40
18694;DHT22;9477;51.414;10.362;2023-04-15T08:08:48;8.90;96.60
18694;DHT22;9477;51.414;10.362;2023-04-15T08:10:51;8.80;96.70
18694;DHT22;9477;51.414;10.362;2023-04-15T08:12:54;8.50;96.60
18694;DHT22;9477;51.414;10.362;2023-04-15T08:14:58;8.90;97.00
18694;DHT22;9477;51.414;10.362;2023-04-15T08:17:01;8.90;97.30
18694;DHT22;9477;51.414;10.362;2023-04-15T08:19:06;8.80;97.30
18694;DHT22;9477;51.414;10.362;2023-04-15T08:21:09;9.00;97.50
18694;DHT22;9477;51.414;10.362;2023-04-15T08:23:12;8.90;97.40
18694;DHT22;9477;51.414;10.362;2023-04-15T08:25:15;9.20;97.40
18694;DHT22;9477;51.414;10.362;2023-04-15T08:27:18;9.40;97.30
18694;DHT22;9477;51.414;10.362;2023-04-15T08:29:21;9.30;97.00
18694;DHT22;9477;51.414;10.362;2023-04-15T08:31:25;9.50;97.10
18694;DHT22;9477;51.414;10.362;2023-04-15T08:33:31;9.40;96.90
18694;DHT22;9477;51.414;10.362;2023-04-15T08:35:37;9.70;97.10
18694;DHT22;9477;51.414;10.362;2023-04-15T08:37:40;9.70;96.50
18694;DHT22;9477;51.414;10.362;2023-04-15T08:39:43;9.60;96.60
18694;DHT22;9477;51.414;10.362;2023-04-15T08:41:47;9.50;96.60
18694;DHT22;9477;51.414;10.362;2023-04-15T08:43:55;9.80;96.80
18694;DHT22;9477;51.414;10.362;2023-04-15T08:45:59;9.80;96.60
18694;DHT22;9477;51.414;10.362;2023-04-15T08:48:04;9.60;96.40
18694;DHT22;9477;51.414;10.362;2023-04-15T08:50:09;9.30;96.50
18694;DHT22;9477;51.414;10.362;2023-04-15T08:52:14;9.50;96.80
18694;DHT22;9477;51.414;10.362;2023-04-15T08:54:18;9.20;97.10
18694;DHT22;9477;51.414;10.362;2023-04-15T08:56:23;9.20;97.30
18694;DHT22;9477;51.414;10.362;2023-04-15T08:58:27;9.40;97.30
18694;DHT22;9477;51.414;10.362;2023-04-15T09:00:31;9.10;97.20
18694;DHT22;9477;51.414;10.362;2023-04-15T09:02:34;8.90;97.20
18694;DHT22;9477;51.414;10.362;2023-04-15T09:04:38;9.20;97.60
18694;DHT22;9477;51.414;10.362;2023-04-15T09:06:41;9.30;97.30
18694;DHT22;9477;51.414;10.362;2023-04-15T09:08:46;9.40;97.30
18694;DHT22;9477;51.414;10.362;2023-04-15T09:10:50;9.50;97.00
18694;DHT22;9477;51.414;10.362;2023-04-15T09:12:53;9.30;97.10
18694;DHT22;9477;51.414;10.362;2023-04-15T09:14:56;9.50;97.20
18694;DHT22;9477;51.414;10.362;2023-04-15T09:17:00;9.60;97.10
18694;DHT22;9477;51.414;10.362;2023-04-15T09:19:20;9.70;97.20
18694;DHT22;9477;51.414;10.362;2023-04-15T09:21:23;9.20;97.00
18694;DHT22;9477;51.414;10.362;2023-04-15T09:23:26;9.40;97.30
18694;DHT22;9477;51.414;10.362;2023-04-15T09:25:31;9.20;97.40
18694;DHT22;9477;51.414;10.362;2023-04-15T09:27:35;9.20;97.50
18694;DHT22;9477;51.414;10.362;2023-04-15T09:29:41;9.20;97.90
18694;DHT22;9477;51.414;10.362;2023-04-15T09:31:44;9.40;98.10
18694;DHT22;9477;51.414;10.362;2023-04-15T09:33:54;9.60;97.90
18694;DHT22;9477;51.414;10.362;2023-04-15T09:35:59;9.50;97.80
18694;DHT22;9477;51.414;10.362;2023-04-15T09:38:03;9.40;97.80
18694;DHT22;9477;51.414;10.362;2023-04-15T09:40:08;9.70;97.70
18694;DHT22;9477;51.414;10.362;2023-04-15T09:42:12;9.60;97.60
18694;DHT22;9477;51.414;10.362;2023-04-15T09:44:22;9.50;97.70
18694;DHT22;9477;51.414;10.362;2023-04-15T09:46:41;9.40;98.10
18694;DHT22;9477;51.414;10.362;2023-04-15T09:48:45;9.70;98.00
18694;DHT22;9477;51.414;10.362;2023-04-15T09:50:49;9.90;97.80
18694;DHT22;9477;51.414;10.362;2023-04-15T09:52:54;9.80;97.80
18694;DHT22;9477;51.414;10.362;2023-04-15T09:54:58;9.50;97.70
18694;DHT22;9477;51.414;10.362;2023-04-15T09:57:06;9.80;98.10
18694;DHT22;9477;51.414;10.362;2023-04-15T09:59:10;10.00;97.50
18694;DHT22;9477;51.414;10.362;2023-04-15T10:01:13;10.20;97.10
18694;DHT22;9477;51.414;10.362;2023-04-15T10:03:18;10.10;96.70
18694;DHT22;9477;51.414;10.362;2023-04-15T10:05:23;9.80;97.40
18694;DHT22;9477;51.414;10.362;2023-04-15T10:07:27;9.80;97.50
18694;DHT22;9477;51.414;10.362;2023-04-15T10:09:30;9.80;97.60
18694;DHT22;9477;51.414;10.362;2023-04-15T10:11:34;9.70;97.50
18694;DHT22;9477;51.414;10.362;2023-04-15T10:13:37;9.80;97.80
18694;DHT22;9477;51.414;10.362;2023-04-15T10:15:50;9.60;97.80
18694;DHT22;9477;51.414;10.362;2023-04-15T10:17:55;9.90;98.10
18694;DHT22;9477;51.414;10.362;2023-04-15T10:20:03;10.10;97.50
18694;DHT22;9477;51.414;10.362;2023-04-15T10:22:06;9.80;97.30
18694;DHT22;9477;51.414;10.362;2023-04-15T10:24:10;9.90;97.60
18694;DHT22;9477;51.414;10.362;2023-04-15T10:26:13;10.10;97.30
18694;DHT22;9477;51.414;10.362;2023-04-15T10:28:19;10.30;97.10
18694;DHT22;9477;51.414;10.362;2023-04-15T10:30:23;10.20;96.90
18694;DHT22;9477;51.414;10.362;2023-04-15T10:32:28;10.20;97.10
18694;DHT22;9477;51.414;10.362;2023-04-15T10:34:31;10.20;97.00
18694;DHT22;9477;51.414;10.362;2023-04-15T10:36:35;10.10;97.10
18694;DHT22;9477;51.414;10.362;2023-04-15T10:38:42;10.00;97.20
18694;DHT22;9477;51.414;10.362;2023-04-15T10:40:46;9.70;97.60
18694;DHT22;9477;51.414;10.362;2023-04-15T10:42:49;9.70;97.60
18694;DHT22;9477;51.414;10.362;2023-04-15T10:44:55;9.80;97.70
18694;DHT22;9477;51.414;10.362;2023-04-15T10:46:58;10.10;97.60
18694;DHT22;9477;51.414;10.362;2023-04-15T10:49:08;10.00;97.50
18694;DHT22;9477;51.414;10.362;2023-04-15T10:51:13;9.40;97.90
18694;DHT22;9477;51.414;10.362;2023-04-15T10:53:26;9.90;98.30
18694;DHT22;9477;51.414;10.362;2023-04-15T10:55:31;9.70;98.30
18694;DHT22;9477;51.414;10.362;2023-04-15T10:57:37;10.20;97.90
18694;DHT22;9477;51.414;10.362;2023-04-15T11:00:01;10.00;97.70
18694;DHT22;9477;51.414;10.362;2023-04-15T11:02:07;9.60;97.90
18694;DHT22;9477;51.414;10.362;2023-04-15T11:04:14;9.90;98.20
18694;DHT22;9477;51.414;10.362;2023-04-15T11:06:17;9.90;98.30
18694;DHT22;9477;51.414;10.362;2023-04-15T11:08:54;9.90;98.70
18694;DHT22;9477;51.414;10.362;2023-04-15T11:10:57;9.90;98.60
18694;DHT22;9477;51.414;10.362;2023-04-15T11:13:02;9.80;98.60
18694;DHT22;9477;51.414;10.362;2023-04-15T11:15:26;10.00;98.20
18694;DHT22;9477;51.414;10.362;2023-04-15T11:17:30;9.90;98.40
18694;DHT22;9477;51.414;10.362;2023-04-15T11:19:36;9.80;98.50
18694;DHT22;9477;51.414;10.362;2023-04-15T11:21:39;9.60;98.60
18694;DHT22;9477;51.414;10.362;2023-04-15T11:23:43;9.90;99.00
18694;DHT22;9477;51.414;10.362;2023-04-15T11:25:49;10.30;98.40
18694;DHT22;9477;51.414;10.362;2023-04-15T11:27:52;10.10;98.00
18694;DHT22;9477;51.414;10.362;2023-04-15T11:29:55;10.00;97.80
18694;DHT22;9477;51.414;10.362;2023-04-15T11:32:05;10.40;97.80
18694;DHT22;9477;51.414;10.362;2023-04-15T11:34:09;10.40;97.90
18694;DHT22;9477;51.414;10.362;2023-04-15T11:36:11;10.50;97.80
18694;DHT22;9477;51.414;10.362;2023-04-15T11:38:15;10.50;97.70
18694;DHT22;9477;51.414;10.362;2023-04-15T11:40:22;10.30;97.70
18694;DHT22;9477;51.414;10.362;2023-04-15T11:42:26;9.90;98.40
18694;DHT22;9477;51.414;10.362;2023-04-15T11:44:47;9.70;98.80
18694;DHT22;9477;51.414;10.362;2023-04-15T11:46:51;10.00;98.70
18694;DHT22;9477;51.414;10.362;2023-04-15T11:48:54;10.00;98.80
18694;DHT22;9477;51.414;10.362;2023-04-15T11:50:58;10.20;98.80
18694;DHT22;9477;51.414;10.362;2023-04-15T11:53:04;9.90;99.00
18694;DHT22;9477;51.414;10.362;2023-04-15T11:55:09;10.00;98.60
18694;DHT22;9477;51.414;10.362;2023-04-15T11:57:13;10.10;98.70
18694;DHT22;9477;51.414;10.362;2023-04-15T11:59:21;10.10;98.70
18694;DHT22;9477;51.414;10.362;2023-04-15T12:01:32;9.60;99.20
18694;DHT22;9477;51.414;10.362;2023-04-15T12:03:37;9.90;99.80
18694;DHT22;9477;51.414;10.362;2023-04-15T12:06:02;10.10;99.10
18694;DHT22;9477;51.414;10.362;2023-04-15T12:08:06;10.10;98.90
18694;DHT22;9477;51.414;10.362;2023-04-15T12:10:11;10.10;98.60
18694;DHT22;9477;51.414;10.362;2023-04-15T12:12:14;10.10;98.90
18694;DHT22;9477;51.414;10.362;2023-04-15T12:14:33;9.50;99.60
18694;DHT22;9477;51.414;10.362;2023-04-15T12:16:40;10.00;99.30
18694;DHT22;9477;51.414;10.362;2023-04-15T12:18:51;9.80;99.60
18694;DHT22;9477;51.414;10.362;2023-04-15T12:20:56;10.10;99.20
18694;DHT22;9477;51.414;10.362;2023-04-15T12:23:05;10.00;99.30
18694;DHT22;9477;51.414;10.362;2023-04-15T12:25:08;10.00;99.50
18694;DHT22;9477;51.414;10.362;2023-04-15T12:27:12;10.10;99.40
18694;DHT22;9477;51.414;10.362;2023-04-15T12:29:16;10.00;99.20
18694;DHT22;9477;51.414;10.362;2023-04-15T12:31:20;10.30;99.30
18694;DHT22;9477;51.414;10.362;2023-04-15T12:33:31;10.60;99.30
18694;DHT22;9477;51.414;10.362;2023-04-15T12:35:34;10.70;98.90
18694;DHT22;9477;51.414;10.362;2023-04-15T12:37:38;10.70;98.80
18694;DHT22;9477;51.414;10.362;2023-04-15T12:39:42;10.60;98.70
18694;DHT22;9477;51.414;10.362;2023-04-15T12:41:46;10.40;98.80
18694;DHT22;9477;51.414;10.362;2023-04-15T12:43:49;10.50;99.00
18694;DHT22;9477;51.414;10.362;2023-04-15T12:45:52;10.10;98.90
18694;DHT22;9477;51.414;10.362;2023-04-15T12:47:56;10.10;99.20
18694;DHT22;9477;51.414;10.362;2023-04-15T12:49:59;10.10;99.80
18694;DHT22;9477;51.414;10.362;2023-04-15T12:52:05;10.20;99.50
18694;DHT22;9477;51.414;10.362;2023-04-15T12:54:08;10.30;99.50
18694;DHT22;9477;51.414;10.362;2023-04-15T12:56:11;10.40;99.30
18694;DHT22;9477;51.414;10.362;2023-04-15T12:58:14;10.10;99.30
18694;DHT22;9477;51.414;10.362;2023-04-15T13:00:19;10.10;99.50
18694;DHT22;9477;51.414;10.362;2023-04-15T13:02:22;10.40;99.70
18694;DHT22;9477;51.414;10.362;2023-04-15T13:04:28;10.50;99.50
18694;DHT22;9477;51.414;10.362;2023-04-15T13:06:32;10.00;99.40
18694;DHT22;9477;51.414;10.362;2023-04-15T13:08:38;9.60;99.90
18694;DHT22;9477;51.414;10.362;2023-04-15T13:10:56;10.10;99.90
18694;DHT22;9477;51.414;10.362;2023-04-15T13:12:59;10.30;99.90
18694;DHT22;9477;51.414;10.362;2023-04-15T13:15:02;10.50;99.90